sensor_id;sensor_type;location;lat;lon;timestamp;P1;durP1;ratioP1;P2;durP2;ratioP2
60318;SDS011;46163;52.306;5.634;2023-08-20T00:00:29;5.95;;;2.58;;
60318;SDS011;46163;52.306;5.634;2023-08-20T00:03:07;3.88;;;2.65;;
60318;SDS011;46163;52.306;5.634;2023-08-20T00:05:36;5.20;;;2.80;;
60318;SDS011;46163;52.306;5.634;2023-08-20T00:08:02;7.05;;;2.92;;
60318;SDS011;46163;52.306;5.634;2023-08-20T00:10:29;4.95;;;2.60;;
60318;SDS011;46163;52.306;5.634;2023-08-20T00:12:55;5.57;;;3.03;;
60318;SDS011;46163;52.306;5.634;2023-08-20T00:15:21;4.32;;;2.63;;
60318;SDS011;46163;52.306;5.634;2023-08-20T00:17:51;8.57;;;3.08;;
60318;SDS011;46163;52.306;5.634;2023-08-20T00:20:17;4.05;;;2.78;;
60318;SDS011;46163;52.306;5.634;2023-08-20T00:22:44;4.20;;;2.70;;
60318;SDS011;46163;52.306;5.634;2023-08-20T00:25:12;4.10;;;2.78;;
60318;SDS011;46163;52.306;5.634;2023-08-20T00:27:39;4.60;;;2.75;;
60318;SDS011;46163;52.306;5.634;2023-08-20T00:30:05;3.67;;;2.63;;
60318;SDS011;46163;52.306;5.634;2023-08-20T00:32:32;4.45;;;2.90;;
60318;SDS011;46163;52.306;5.634;2023-08-20T00:34:58;6.20;;;3.28;;
60318;SDS011;46163;52.306;5.634;2023-08-20T00:37:23;8.07;;;3.25;;
60318;SDS011;46163;52.306;5.634;2023-08-20T00:39:50;6.32;;;2.92;;
60318;SDS011;46163;52.306;5.634;2023-08-20T00:42:15;5.30;;;3.25;;
60318;SDS011;46163;52.306;5.634;2023-08-20T00:44:41;5.72;;;2.95;;
60318;SDS011;46163;52.306;5.634;2023-08-20T00:47:10;4.30;;;2.65;;
60318;SDS011;46163;52.306;5.634;2023-08-20T00:49:36;6.25;;;2.88;;
60318;SDS011;46163;52.306;5.634;2023-08-20T00:54:30;2.55;;;2.35;;
60318;SDS011;46163;52.306;5.634;2023-08-20T00:56:57;5.45;;;3.03;;
60318;SDS011;46163;52.306;5.634;2023-08-20T00:59:24;4.50;;;3.07;;
60318;SDS011;46163;52.306;5.634;2023-08-20T01:01:50;5.07;;;2.80;;
60318;SDS011;46163;52.306;5.634;2023-08-20T01:04:16;5.15;;;2.80;;
60318;SDS011;46163;52.306;5.634;2023-08-20T01:09:41;4.07;;;2.85;;
60318;SDS011;46163;52.306;5.634;2023-08-20T01:12:16;6.95;;;3.20;;
60318;SDS011;46163;52.306;5.634;2023-08-20T01:14:43;3.95;;;2.80;;
60318;SDS011;46163;52.306;5.634;2023-08-20T01:17:08;6.65;;;2.63;;
60318;SDS011;46163;52.306;5.634;2023-08-20T01:19:34;4.68;;;2.85;;
60318;SDS011;46163;52.306;5.634;2023-08-20T01:30:44;6.65;;;2.80;;
60318;SDS011;46163;52.306;5.634;2023-08-20T01:33:11;8.45;;;3.00;;
60318;SDS011;46163;52.306;5.634;2023-08-20T01:35:37;4.22;;;3.10;;
60318;SDS011;46163;52.306;5.634;2023-08-20T01:38:03;3.97;;;3.10;;
60318;SDS011;46163;52.306;5.634;2023-08-20T01:40:29;4.63;;;2.90;;
60318;SDS011;46163;52.306;5.634;2023-08-20T01:42:56;6.13;;;3.30;;
60318;SDS011;46163;52.306;5.634;2023-08-20T01:45:22;4.45;;;3.00;;
60318;SDS011;46163;52.306;5.634;2023-08-20T01:47:47;4.65;;;2.92;;
60318;SDS011;46163;52.306;5.634;2023-08-20T01:50:13;3.60;;;2.70;;
60318;SDS011;46163;52.306;5.634;2023-08-20T01:52:38;5.43;;;3.10;;
60318;SDS011;46163;52.306;5.634;2023-08-20T01:55:04;4.82;;;2.92;;
60318;SDS011;46163;52.306;5.634;2023-08-20T01:57:30;5.97;;;3.00;;
60318;SDS011;46163;52.306;5.634;2023-08-20T01:59:58;6.60;;;3.55;;
60318;SDS011;46163;52.306;5.634;2023-08-20T02:02:24;5.43;;;3.10;;
60318;SDS011;46163;52.306;5.634;2023-08-20T02:04:49;6.00;;;3.50;;
60318;SDS011;46163;52.306;5.634;2023-08-20T02:07:17;5.18;;;3.38;;
60318;SDS011;46163;52.306;5.634;2023-08-20T02:09:42;8.02;;;3.55;;
60318;SDS011;46163;52.306;5.634;2023-08-20T02:12:08;6.10;;;2.80;;
60318;SDS011;46163;52.306;5.634;2023-08-20T02:14:34;6.47;;;3.50;;
60318;SDS011;46163;52.306;5.634;2023-08-20T02:17:03;6.28;;;3.40;;
60318;SDS011;46163;52.306;5.634;2023-08-20T02:19:31;9.43;;;3.35;;
60318;SDS011;46163;52.306;5.634;2023-08-20T02:21:56;3.90;;;3.17;;
60318;SDS011;46163;52.306;5.634;2023-08-20T02:24:22;4.30;;;3.30;;
60318;SDS011;46163;52.306;5.634;2023-08-20T02:26:47;7.47;;;3.15;;
60318;SDS011;46163;52.306;5.634;2023-08-20T02:29:13;6.38;;;3.40;;
60318;SDS011;46163;52.306;5.634;2023-08-20T02:31:38;7.72;;;3.15;;
60318;SDS011;46163;52.306;5.634;2023-08-20T02:34:03;6.13;;;3.25;;
60318;SDS011;46163;52.306;5.634;2023-08-20T02:36:29;4.57;;;3.33;;
60318;SDS011;46163;52.306;5.634;2023-08-20T02:38:54;7.85;;;3.35;;
60318;SDS011;46163;52.306;5.634;2023-08-20T02:41:20;5.30;;;3.25;;
60318;SDS011;46163;52.306;5.634;2023-08-20T02:43:45;4.90;;;3.30;;
60318;SDS011;46163;52.306;5.634;2023-08-20T02:46:11;5.68;;;3.75;;
60318;SDS011;46163;52.306;5.634;2023-08-20T02:48:36;7.55;;;3.75;;
60318;SDS011;46163;52.306;5.634;2023-08-20T02:51:02;6.63;;;3.50;;
60318;SDS011;46163;52.306;5.634;2023-08-20T02:53:27;7.30;;;3.65;;
60318;SDS011;46163;52.306;5.634;2023-08-20T02:55:53;6.20;;;3.22;;
60318;SDS011;46163;52.306;5.634;2023-08-20T02:58:19;8.88;;;3.08;;
60318;SDS011;46163;52.306;5.634;2023-08-20T03:00:47;8.85;;;3.60;;
60318;SDS011;46163;52.306;5.634;2023-08-20T03:03:12;6.30;;;3.70;;
60318;SDS011;46163;52.306;5.634;2023-08-20T03:05:38;4.63;;;3.28;;
60318;SDS011;46163;52.306;5.634;2023-08-20T03:08:04;7.35;;;3.58;;
60318;SDS011;46163;52.306;5.634;2023-08-20T03:10:30;4.68;;;3.00;;
60318;SDS011;46163;52.306;5.634;2023-08-20T03:12:59;5.45;;;2.88;;
60318;SDS011;46163;52.306;5.634;2023-08-20T03:15:30;4.75;;;2.97;;
60318;SDS011;46163;52.306;5.634;2023-08-20T03:20:23;6.07;;;2.78;;
60318;SDS011;46163;52.306;5.634;2023-08-20T03:22:49;5.80;;;2.78;;
60318;SDS011;46163;52.306;5.634;2023-08-20T03:25:14;4.55;;;2.78;;
60318;SDS011;46163;52.306;5.634;2023-08-20T03:27:39;4.28;;;2.70;;
60318;SDS011;46163;52.306;5.634;2023-08-20T03:30:05;5.28;;;2.83;;
60318;SDS011;46163;52.306;5.634;2023-08-20T03:32:34;3.33;;;2.50;;
60318;SDS011;46163;52.306;5.634;2023-08-20T03:34:59;6.95;;;2.97;;
60318;SDS011;46163;52.306;5.634;2023-08-20T03:37:25;6.55;;;2.97;;
60318;SDS011;46163;52.306;5.634;2023-08-20T03:39:53;6.80;;;3.17;;
60318;SDS011;46163;52.306;5.634;2023-08-20T03:42:19;5.82;;;2.85;;
60318;SDS011;46163;52.306;5.634;2023-08-20T03:44:44;4.97;;;2.83;;
60318;SDS011;46163;52.306;5.634;2023-08-20T03:47:12;5.70;;;3.30;;
60318;SDS011;46163;52.306;5.634;2023-08-20T03:49:37;8.25;;;3.20;;
60318;SDS011;46163;52.306;5.634;2023-08-20T03:52:03;5.93;;;3.50;;
60318;SDS011;46163;52.306;5.634;2023-08-20T03:54:29;3.88;;;2.80;;
60318;SDS011;46163;52.306;5.634;2023-08-20T03:56:55;6.85;;;3.47;;
60318;SDS011;46163;52.306;5.634;2023-08-20T03:59:20;5.03;;;3.03;;
60318;SDS011;46163;52.306;5.634;2023-08-20T04:01:46;10.18;;;3.20;;
60318;SDS011;46163;52.306;5.634;2023-08-20T04:04:11;6.82;;;3.00;;
60318;SDS011;46163;52.306;5.634;2023-08-20T04:06:37;9.77;;;3.10;;
60318;SDS011;46163;52.306;5.634;2023-08-20T04:09:02;4.40;;;2.63;;
60318;SDS011;46163;52.306;5.634;2023-08-20T04:11:28;9.73;;;3.13;;
60318;SDS011;46163;52.306;5.634;2023-08-20T04:13:53;5.97;;;2.95;;
60318;SDS011;46163;52.306;5.634;2023-08-20T04:16:19;3.80;;;2.80;;
60318;SDS011;46163;52.306;5.634;2023-08-20T04:18:44;5.47;;;2.80;;
60318;SDS011;46163;52.306;5.634;2023-08-20T04:21:10;5.38;;;2.63;;
60318;SDS011;46163;52.306;5.634;2023-08-20T04:23:36;5.00;;;2.80;;
60318;SDS011;46163;52.306;5.634;2023-08-20T04:26:04;4.80;;;2.95;;
60318;SDS011;46163;52.306;5.634;2023-08-20T04:28:29;3.22;;;2.53;;
60318;SDS011;46163;52.306;5.634;2023-08-20T04:30:55;5.72;;;3.00;;
60318;SDS011;46163;52.306;5.634;2023-08-20T04:33:21;4.97;;;3.00;;
60318;SDS011;46163;52.306;5.634;2023-08-20T04:35:48;4.30;;;3.05;;
60318;SDS011;46163;52.306;5.634;2023-08-20T04:38:15;7.85;;;3.63;;
60318;SDS011;46163;52.306;5.634;2023-08-20T04:40:41;4.35;;;2.88;;
60318;SDS011;46163;52.306;5.634;2023-08-20T04:43:06;5.65;;;3.08;;
60318;SDS011;46163;52.306;5.634;2023-08-20T04:45:32;6.78;;;3.00;;
60318;SDS011;46163;52.306;5.634;2023-08-20T04:47:59;9.13;;;3.60;;
60318;SDS011;46163;52.306;5.634;2023-08-20T04:50:25;8.27;;;3.00;;
60318;SDS011;46163;52.306;5.634;2023-08-20T04:52:50;5.80;;;3.80;;
60318;SDS011;46163;52.306;5.634;2023-08-20T04:55:16;7.15;;;3.58;;
60318;SDS011;46163;52.306;5.634;2023-08-20T04:57:41;4.50;;;3.00;;
60318;SDS011;46163;52.306;5.634;2023-08-20T05:00:07;4.85;;;2.90;;
60318;SDS011;46163;52.306;5.634;2023-08-20T05:02:34;6.15;;;3.85;;
60318;SDS011;46163;52.306;5.634;2023-08-20T05:05:00;7.32;;;3.70;;
60318;SDS011;46163;52.306;5.634;2023-08-20T05:07:29;7.00;;;3.50;;
60318;SDS011;46163;52.306;5.634;2023-08-20T05:09:55;6.03;;;3.58;;
60318;SDS011;46163;52.306;5.634;2023-08-20T05:12:22;6.93;;;3.85;;
60318;SDS011;46163;52.306;5.634;2023-08-20T05:14:48;7.90;;;3.58;;
60318;SDS011;46163;52.306;5.634;2023-08-20T05:17:13;8.90;;;3.30;;
60318;SDS011;46163;52.306;5.634;2023-08-20T05:19:39;4.82;;;3.25;;
60318;SDS011;46163;52.306;5.634;2023-08-20T05:22:04;5.20;;;3.10;;
60318;SDS011;46163;52.306;5.634;2023-08-20T05:24:29;6.72;;;3.17;;
60318;SDS011;46163;52.306;5.634;2023-08-20T05:27:07;5.47;;;3.10;;
60318;SDS011;46163;52.306;5.634;2023-08-20T05:29:37;5.93;;;3.40;;
60318;SDS011;46163;52.306;5.634;2023-08-20T05:32:03;8.70;;;3.30;;
60318;SDS011;46163;52.306;5.634;2023-08-20T05:34:29;5.68;;;3.53;;
60318;SDS011;46163;52.306;5.634;2023-08-20T05:36:54;4.97;;;3.45;;
60318;SDS011;46163;52.306;5.634;2023-08-20T05:39:20;5.70;;;3.60;;
60318;SDS011;46163;52.306;5.634;2023-08-20T05:41:45;4.97;;;3.28;;
60318;SDS011;46163;52.306;5.634;2023-08-20T05:44:13;5.35;;;3.55;;
60318;SDS011;46163;52.306;5.634;2023-08-20T05:46:38;15.80;;;6.82;;
60318;SDS011;46163;52.306;5.634;2023-08-20T05:49:05;5.30;;;3.38;;
60318;SDS011;46163;52.306;5.634;2023-08-20T05:51:34;5.68;;;3.50;;
60318;SDS011;46163;52.306;5.634;2023-08-20T05:53:59;7.88;;;3.95;;
60318;SDS011;46163;52.306;5.634;2023-08-20T05:56:27;6.00;;;3.42;;
60318;SDS011;46163;52.306;5.634;2023-08-20T05:58:52;6.93;;;3.28;;
60318;SDS011;46163;52.306;5.634;2023-08-20T06:01:17;7.90;;;4.22;;
60318;SDS011;46163;52.306;5.634;2023-08-20T06:03:45;5.30;;;3.70;;
60318;SDS011;46163;52.306;5.634;2023-08-20T06:06:13;6.35;;;3.25;;
60318;SDS011;46163;52.306;5.634;2023-08-20T06:08:39;7.25;;;3.88;;
60318;SDS011;46163;52.306;5.634;2023-08-20T06:11:04;5.90;;;3.25;;
60318;SDS011;46163;52.306;5.634;2023-08-20T06:13:29;5.72;;;3.65;;
60318;SDS011;46163;52.306;5.634;2023-08-20T06:15:55;7.22;;;3.67;;
60318;SDS011;46163;52.306;5.634;2023-08-20T06:18:20;5.03;;;3.58;;
60318;SDS011;46163;52.306;5.634;2023-08-20T06:20:46;6.15;;;3.85;;
60318;SDS011;46163;52.306;5.634;2023-08-20T06:23:11;7.85;;;3.50;;
60318;SDS011;46163;52.306;5.634;2023-08-20T06:25:38;8.20;;;3.55;;
60318;SDS011;46163;52.306;5.634;2023-08-20T06:28:03;6.15;;;3.20;;
60318;SDS011;46163;52.306;5.634;2023-08-20T06:30:29;7.40;;;3.17;;
60318;SDS011;46163;52.306;5.634;2023-08-20T06:32:54;7.18;;;3.17;;
60318;SDS011;46163;52.306;5.634;2023-08-20T06:35:19;12.07;;;3.30;;
60318;SDS011;46163;52.306;5.634;2023-08-20T06:37:45;7.15;;;3.08;;
60318;SDS011;46163;52.306;5.634;2023-08-20T06:40:10;9.48;;;3.38;;
60318;SDS011;46163;52.306;5.634;2023-08-20T06:42:36;7.43;;;3.33;;
60318;SDS011;46163;52.306;5.634;2023-08-20T06:45:01;6.97;;;3.30;;
60318;SDS011;46163;52.306;5.634;2023-08-20T06:47:29;10.85;;;3.33;;
60318;SDS011;46163;52.306;5.634;2023-08-20T06:49:54;6.03;;;3.08;;
60318;SDS011;46163;52.306;5.634;2023-08-20T06:52:22;4.70;;;3.03;;
60318;SDS011;46163;52.306;5.634;2023-08-20T06:54:48;5.72;;;2.60;;
60318;SDS011;46163;52.306;5.634;2023-08-20T06:57:15;4.38;;;2.33;;
60318;SDS011;46163;52.306;5.634;2023-08-20T06:59:41;7.10;;;2.67;;
60318;SDS011;46163;52.306;5.634;2023-08-20T07:02:08;9.00;;;2.55;;
60318;SDS011;46163;52.306;5.634;2023-08-20T07:04:35;7.00;;;2.55;;
60318;SDS011;46163;52.306;5.634;2023-08-20T07:07:05;7.25;;;3.03;;
60318;SDS011;46163;52.306;5.634;2023-08-20T07:09:30;5.93;;;2.60;;
60318;SDS011;46163;52.306;5.634;2023-08-20T07:11:56;11.55;;;2.88;;
60318;SDS011;46163;52.306;5.634;2023-08-20T07:14:21;5.85;;;2.42;;
60318;SDS011;46163;52.306;5.634;2023-08-20T07:16:47;5.63;;;2.40;;
60318;SDS011;46163;52.306;5.634;2023-08-20T07:19:14;10.82;;;2.60;;
60318;SDS011;46163;52.306;5.634;2023-08-20T07:21:40;4.25;;;2.20;;
60318;SDS011;46163;52.306;5.634;2023-08-20T07:24:06;9.40;;;2.38;;
60318;SDS011;46163;52.306;5.634;2023-08-20T07:26:31;7.28;;;2.92;;
60318;SDS011;46163;52.306;5.634;2023-08-20T07:28:59;4.95;;;2.42;;
60318;SDS011;46163;52.306;5.634;2023-08-20T07:31:31;5.18;;;2.33;;
60318;SDS011;46163;52.306;5.634;2023-08-20T07:33:59;4.57;;;2.20;;
60318;SDS011;46163;52.306;5.634;2023-08-20T07:36:26;3.83;;;2.20;;
60318;SDS011;46163;52.306;5.634;2023-08-20T07:38:55;6.15;;;2.35;;
60318;SDS011;46163;52.306;5.634;2023-08-20T07:41:24;3.33;;;1.90;;
60318;SDS011;46163;52.306;5.634;2023-08-20T07:43:51;4.70;;;2.10;;
60318;SDS011;46163;52.306;5.634;2023-08-20T07:46:18;5.13;;;2.22;;
60318;SDS011;46163;52.306;5.634;2023-08-20T07:48:44;4.53;;;1.80;;
60318;SDS011;46163;52.306;5.634;2023-08-20T07:51:12;5.45;;;1.98;;
60318;SDS011;46163;52.306;5.634;2023-08-20T07:53:40;5.55;;;2.00;;
60318;SDS011;46163;52.306;5.634;2023-08-20T07:56:05;4.70;;;2.00;;
60318;SDS011;46163;52.306;5.634;2023-08-20T07:58:31;4.68;;;1.95;;
60318;SDS011;46163;52.306;5.634;2023-08-20T08:00:56;3.35;;;1.80;;
60318;SDS011;46163;52.306;5.634;2023-08-20T08:03:27;4.78;;;1.98;;
60318;SDS011;46163;52.306;5.634;2023-08-20T08:05:53;6.22;;;1.92;;
60318;SDS011;46163;52.306;5.634;2023-08-20T08:08:19;4.55;;;1.92;;
60318;SDS011;46163;52.306;5.634;2023-08-20T08:10:45;3.95;;;1.77;;
60318;SDS011;46163;52.306;5.634;2023-08-20T08:13:21;4.05;;;1.85;;
60318;SDS011;46163;52.306;5.634;2023-08-20T08:15:47;3.85;;;1.70;;
60318;SDS011;46163;52.306;5.634;2023-08-20T08:18:16;5.30;;;1.90;;
60318;SDS011;46163;52.306;5.634;2023-08-20T08:20:41;4.32;;;1.75;;
60318;SDS011;46163;52.306;5.634;2023-08-20T08:23:07;4.47;;;1.60;;
60318;SDS011;46163;52.306;5.634;2023-08-20T08:32:23;4.32;;;1.95;;
60318;SDS011;46163;52.306;5.634;2023-08-20T08:41:48;4.50;;;1.88;;
60318;SDS011;46163;52.306;5.634;2023-08-20T08:44:56;5.35;;;1.77;;
60318;SDS011;46163;52.306;5.634;2023-08-20T09:12:38;3.78;;;1.70;;
60318;SDS011;46163;52.306;5.634;2023-08-20T09:18:02;4.82;;;2.47;;
60318;SDS011;46163;52.306;5.634;2023-08-20T09:20:48;3.38;;;1.73;;
60318;SDS011;46163;52.306;5.634;2023-08-20T09:31:02;1.50;;;1.15;;
60318;SDS011;46163;52.306;5.634;2023-08-20T09:37:58;2.97;;;1.40;;
60318;SDS011;46163;52.306;5.634;2023-08-20T09:41:01;3.95;;;1.60;;
60318;SDS011;46163;52.306;5.634;2023-08-20T09:50:11;2.30;;;1.30;;
60318;SDS011;46163;52.306;5.634;2023-08-20T09:53:03;2.58;;;1.30;;
60318;SDS011;46163;52.306;5.634;2023-08-20T09:59:40;3.17;;;1.40;;
60318;SDS011;46163;52.306;5.634;2023-08-20T10:02:34;1.92;;;1.15;;
60318;SDS011;46163;52.306;5.634;2023-08-20T10:05:51;2.08;;;1.10;;
60318;SDS011;46163;52.306;5.634;2023-08-20T10:08:19;2.67;;;1.52;;
60318;SDS011;46163;52.306;5.634;2023-08-20T10:10:45;3.05;;;1.20;;
60318;SDS011;46163;52.306;5.634;2023-08-20T10:13:12;3.50;;;1.27;;
60318;SDS011;46163;52.306;5.634;2023-08-20T10:15:39;5.45;;;1.60;;
60318;SDS011;46163;52.306;5.634;2023-08-20T10:18:07;3.40;;;1.47;;
60318;SDS011;46163;52.306;5.634;2023-08-20T10:20:33;3.10;;;1.15;;
60318;SDS011;46163;52.306;5.634;2023-08-20T10:23:02;2.00;;;1.05;;
60318;SDS011;46163;52.306;5.634;2023-08-20T10:25:29;2.42;;;1.10;;
60318;SDS011;46163;52.306;5.634;2023-08-20T10:33:32;3.30;;;1.25;;
60318;SDS011;46163;52.306;5.634;2023-08-20T10:36:06;2.35;;;1.20;;
60318;SDS011;46163;52.306;5.634;2023-08-20T10:38:39;2.85;;;1.40;;
60318;SDS011;46163;52.306;5.634;2023-08-20T10:41:08;1.70;;;1.02;;
60318;SDS011;46163;52.306;5.634;2023-08-20T10:43:35;2.55;;;1.17;;
60318;SDS011;46163;52.306;5.634;2023-08-20T10:46:05;2.60;;;1.20;;
60318;SDS011;46163;52.306;5.634;2023-08-20T10:48:41;1.20;;;1.00;;
60318;SDS011;46163;52.306;5.634;2023-08-20T10:51:09;1.88;;;1.13;;
60318;SDS011;46163;52.306;5.634;2023-08-20T10:53:39;3.13;;;1.02;;
60318;SDS011;46163;52.306;5.634;2023-08-20T10:56:15;3.55;;;1.60;;
60318;SDS011;46163;52.306;5.634;2023-08-20T10:58:43;4.47;;;1.20;;
60318;SDS011;46163;52.306;5.634;2023-08-20T11:01:15;2.42;;;0.95;;
60318;SDS011;46163;52.306;5.634;2023-08-20T11:03:50;2.83;;;1.30;;
60318;SDS011;46163;52.306;5.634;2023-08-20T11:06:16;1.70;;;1.00;;
60318;SDS011;46163;52.306;5.634;2023-08-20T11:08:43;2.70;;;1.20;;
60318;SDS011;46163;52.306;5.634;2023-08-20T11:11:09;2.15;;;0.98;;
60318;SDS011;46163;52.306;5.634;2023-08-20T11:13:36;3.35;;;1.10;;
60318;SDS011;46163;52.306;5.634;2023-08-20T11:16:02;1.50;;;1.15;;
60318;SDS011;46163;52.306;5.634;2023-08-20T11:18:30;2.08;;;1.02;;
60318;SDS011;46163;52.306;5.634;2023-08-20T11:21:00;1.58;;;1.10;;
60318;SDS011;46163;52.306;5.634;2023-08-20T11:23:26;3.20;;;1.23;;
60318;SDS011;46163;52.306;5.634;2023-08-20T11:25:53;4.07;;;1.25;;
60318;SDS011;46163;52.306;5.634;2023-08-20T11:28:19;1.83;;;1.20;;
60318;SDS011;46163;52.306;5.634;2023-08-20T11:30:45;3.10;;;1.58;;
60318;SDS011;46163;52.306;5.634;2023-08-20T11:33:11;6.00;;;1.30;;
60318;SDS011;46163;52.306;5.634;2023-08-20T11:35:37;2.80;;;1.27;;
60318;SDS011;46163;52.306;5.634;2023-08-20T11:38:03;2.90;;;1.27;;
60318;SDS011;46163;52.306;5.634;2023-08-20T11:40:29;2.47;;;1.25;;
60318;SDS011;46163;52.306;5.634;2023-08-20T11:42:55;3.95;;;1.17;;
60318;SDS011;46163;52.306;5.634;2023-08-20T11:45:20;2.63;;;1.20;;
60318;SDS011;46163;52.306;5.634;2023-08-20T11:47:46;2.65;;;1.10;;
60318;SDS011;46163;52.306;5.634;2023-08-20T11:50:12;4.03;;;1.40;;
60318;SDS011;46163;52.306;5.634;2023-08-20T11:52:38;4.45;;;1.70;;
60318;SDS011;46163;52.306;5.634;2023-08-20T11:55:06;4.47;;;1.42;;
60318;SDS011;46163;52.306;5.634;2023-08-20T11:57:33;2.33;;;1.30;;
60318;SDS011;46163;52.306;5.634;2023-08-20T12:00:03;4.00;;;1.50;;
60318;SDS011;46163;52.306;5.634;2023-08-20T12:02:29;3.30;;;1.23;;
60318;SDS011;46163;52.306;5.634;2023-08-20T12:04:55;3.00;;;1.30;;
60318;SDS011;46163;52.306;5.634;2023-08-20T12:07:25;2.13;;;1.08;;
60318;SDS011;46163;52.306;5.634;2023-08-20T12:09:56;3.88;;;1.10;;
60318;SDS011;46163;52.306;5.634;2023-08-20T12:12:24;3.25;;;1.33;;
60318;SDS011;46163;52.306;5.634;2023-08-20T12:14:52;1.95;;;1.10;;
60318;SDS011;46163;52.306;5.634;2023-08-20T12:17:18;2.50;;;1.30;;
60318;SDS011;46163;52.306;5.634;2023-08-20T12:19:45;1.92;;;1.15;;
60318;SDS011;46163;52.306;5.634;2023-08-20T12:22:10;3.67;;;1.55;;
60318;SDS011;46163;52.306;5.634;2023-08-20T12:24:37;3.75;;;1.17;;
60318;SDS011;46163;52.306;5.634;2023-08-20T12:27:02;4.85;;;1.27;;
60318;SDS011;46163;52.306;5.634;2023-08-20T12:29:28;3.20;;;1.30;;
60318;SDS011;46163;52.306;5.634;2023-08-20T12:31:54;3.33;;;1.30;;
60318;SDS011;46163;52.306;5.634;2023-08-20T12:34:20;4.05;;;1.40;;
60318;SDS011;46163;52.306;5.634;2023-08-20T12:36:50;3.30;;;1.40;;
60318;SDS011;46163;52.306;5.634;2023-08-20T12:39:18;2.05;;;1.20;;
60318;SDS011;46163;52.306;5.634;2023-08-20T12:41:44;3.90;;;1.48;;
60318;SDS011;46163;52.306;5.634;2023-08-20T12:46:37;4.68;;;1.60;;
60318;SDS011;46163;52.306;5.634;2023-08-20T12:49:02;3.03;;;1.27;;
60318;SDS011;46163;52.306;5.634;2023-08-20T12:51:28;5.20;;;1.52;;
60318;SDS011;46163;52.306;5.634;2023-08-20T12:53:54;2.95;;;1.10;;
60318;SDS011;46163;52.306;5.634;2023-08-20T12:56:22;3.70;;;1.30;;
60318;SDS011;46163;52.306;5.634;2023-08-20T13:01:13;1.83;;;1.17;;
60318;SDS011;46163;52.306;5.634;2023-08-20T13:03:39;2.60;;;1.33;;
60318;SDS011;46163;52.306;5.634;2023-08-20T13:06:04;3.05;;;1.40;;
60318;SDS011;46163;52.306;5.634;2023-08-20T13:08:30;4.47;;;1.10;;
60318;SDS011;46163;52.306;5.634;2023-08-20T13:10:57;3.53;;;1.50;;
60318;SDS011;46163;52.306;5.634;2023-08-20T13:13:23;3.30;;;1.65;;
60318;SDS011;46163;52.306;5.634;2023-08-20T13:15:53;4.30;;;1.25;;
60318;SDS011;46163;52.306;5.634;2023-08-20T13:18:19;5.10;;;1.60;;
60318;SDS011;46163;52.306;5.634;2023-08-20T13:20:45;2.35;;;1.30;;
60318;SDS011;46163;52.306;5.634;2023-08-20T13:23:10;2.05;;;1.15;;
60318;SDS011;46163;52.306;5.634;2023-08-20T13:25:36;4.20;;;1.33;;
60318;SDS011;46163;52.306;5.634;2023-08-20T13:28:02;2.63;;;1.30;;
60318;SDS011;46163;52.306;5.634;2023-08-20T13:30:28;5.75;;;1.35;;
60318;SDS011;46163;52.306;5.634;2023-08-20T13:32:56;4.47;;;1.40;;
60318;SDS011;46163;52.306;5.634;2023-08-20T13:35:21;2.92;;;1.30;;
60318;SDS011;46163;52.306;5.634;2023-08-20T13:37:47;4.25;;;1.30;;
60318;SDS011;46163;52.306;5.634;2023-08-20T13:40:13;2.47;;;1.08;;
60318;SDS011;46163;52.306;5.634;2023-08-20T13:42:38;1.45;;;1.15;;
60318;SDS011;46163;52.306;5.634;2023-08-20T13:45:04;3.40;;;1.40;;
60318;SDS011;46163;52.306;5.634;2023-08-20T13:47:30;1.75;;;1.00;;
60318;SDS011;46163;52.306;5.634;2023-08-20T13:49:56;2.78;;;1.20;;
60318;SDS011;46163;52.306;5.634;2023-08-20T13:52:22;2.35;;;1.05;;
60318;SDS011;46163;52.306;5.634;2023-08-20T13:54:47;2.28;;;1.10;;
60318;SDS011;46163;52.306;5.634;2023-08-20T13:57:13;2.30;;;1.00;;
60318;SDS011;46163;52.306;5.634;2023-08-20T13:59:38;1.85;;;1.20;;
60318;SDS011;46163;52.306;5.634;2023-08-20T14:02:04;1.63;;;1.00;;
60318;SDS011;46163;52.306;5.634;2023-08-20T14:04:29;3.30;;;1.30;;
60318;SDS011;46163;52.306;5.634;2023-08-20T14:06:55;2.67;;;1.23;;
60318;SDS011;46163;52.306;5.634;2023-08-20T14:09:20;2.92;;;1.10;;
60318;SDS011;46163;52.306;5.634;2023-08-20T14:11:46;2.45;;;1.30;;
60318;SDS011;46163;52.306;5.634;2023-08-20T14:14:12;2.67;;;1.10;;
60318;SDS011;46163;52.306;5.634;2023-08-20T14:16:37;3.53;;;1.08;;
60318;SDS011;46163;52.306;5.634;2023-08-20T14:19:03;2.47;;;1.17;;
60318;SDS011;46163;52.306;5.634;2023-08-20T14:21:29;1.98;;;1.20;;
60318;SDS011;46163;52.306;5.634;2023-08-20T14:23:54;2.25;;;1.27;;
60318;SDS011;46163;52.306;5.634;2023-08-20T14:26:25;1.85;;;1.00;;
60318;SDS011;46163;52.306;5.634;2023-08-20T14:28:51;1.85;;;1.02;;
60318;SDS011;46163;52.306;5.634;2023-08-20T14:31:17;3.15;;;1.10;;
60318;SDS011;46163;52.306;5.634;2023-08-20T14:33:44;1.80;;;1.00;;
60318;SDS011;46163;52.306;5.634;2023-08-20T14:36:10;1.42;;;1.20;;
60318;SDS011;46163;52.306;5.634;2023-08-20T14:38:35;2.38;;;1.35;;
60318;SDS011;46163;52.306;5.634;2023-08-20T14:41:01;0.88;;;0.82;;
60318;SDS011;46163;52.306;5.634;2023-08-20T14:43:27;1.92;;;0.90;;
60318;SDS011;46163;52.306;5.634;2023-08-20T14:45:54;4.50;;;1.48;;
60318;SDS011;46163;52.306;5.634;2023-08-20T14:48:20;2.63;;;1.25;;
60318;SDS011;46163;52.306;5.634;2023-08-20T14:50:46;1.33;;;1.15;;
60318;SDS011;46163;52.306;5.634;2023-08-20T14:53:13;2.67;;;1.40;;
60318;SDS011;46163;52.306;5.634;2023-08-20T14:55:38;3.00;;;1.45;;
60318;SDS011;46163;52.306;5.634;2023-08-20T14:58:04;3.03;;;1.40;;
60318;SDS011;46163;52.306;5.634;2023-08-20T15:00:31;2.60;;;1.38;;
60318;SDS011;46163;52.306;5.634;2023-08-20T15:02:57;5.53;;;1.38;;
60318;SDS011;46163;52.306;5.634;2023-08-20T15:05:23;2.50;;;1.48;;
60318;SDS011;46163;52.306;5.634;2023-08-20T15:07:48;4.30;;;1.50;;
60318;SDS011;46163;52.306;5.634;2023-08-20T15:10:14;4.68;;;1.40;;
60318;SDS011;46163;52.306;5.634;2023-08-20T15:12:41;2.28;;;1.05;;
60318;SDS011;46163;52.306;5.634;2023-08-20T15:15:07;5.00;;;1.30;;
60318;SDS011;46163;52.306;5.634;2023-08-20T15:17:36;1.42;;;1.10;;
60318;SDS011;46163;52.306;5.634;2023-08-20T15:20:05;3.30;;;1.50;;
60318;SDS011;46163;52.306;5.634;2023-08-20T15:22:33;1.60;;;0.93;;
60318;SDS011;46163;52.306;5.634;2023-08-20T15:24:59;2.42;;;1.17;;
60318;SDS011;46163;52.306;5.634;2023-08-20T15:27:24;1.58;;;1.15;;
60318;SDS011;46163;52.306;5.634;2023-08-20T15:29:53;2.22;;;1.30;;
60318;SDS011;46163;52.306;5.634;2023-08-20T15:32:21;2.67;;;1.38;;
60318;SDS011;46163;52.306;5.634;2023-08-20T15:34:49;2.90;;;1.30;;
60318;SDS011;46163;52.306;5.634;2023-08-20T15:37:15;3.55;;;1.42;;
60318;SDS011;46163;52.306;5.634;2023-08-20T15:39:41;3.47;;;1.17;;
60318;SDS011;46163;52.306;5.634;2023-08-20T15:42:07;3.00;;;1.40;;
60318;SDS011;46163;52.306;5.634;2023-08-20T15:44:33;2.92;;;1.33;;
60318;SDS011;46163;52.306;5.634;2023-08-20T15:46:58;2.17;;;1.23;;
60318;SDS011;46163;52.306;5.634;2023-08-20T15:49:23;3.10;;;1.80;;
60318;SDS011;46163;52.306;5.634;2023-08-20T15:51:49;3.90;;;1.35;;
60318;SDS011;46163;52.306;5.634;2023-08-20T15:54:15;2.80;;;1.30;;
60318;SDS011;46163;52.306;5.634;2023-08-20T15:56:41;3.30;;;1.40;;
60318;SDS011;46163;52.306;5.634;2023-08-20T15:59:08;2.30;;;1.50;;
60318;SDS011;46163;52.306;5.634;2023-08-20T16:01:34;3.25;;;1.20;;
60318;SDS011;46163;52.306;5.634;2023-08-20T16:03:59;2.38;;;1.23;;
60318;SDS011;46163;52.306;5.634;2023-08-20T16:06:25;2.42;;;1.00;;
60318;SDS011;46163;52.306;5.634;2023-08-20T16:08:51;2.17;;;1.30;;
60318;SDS011;46163;52.306;5.634;2023-08-20T16:11:17;1.88;;;1.35;;
60318;SDS011;46163;52.306;5.634;2023-08-20T16:16:14;3.47;;;1.33;;
60318;SDS011;46163;52.306;5.634;2023-08-20T16:18:41;5.15;;;1.75;;
60318;SDS011;46163;52.306;5.634;2023-08-20T16:21:07;3.17;;;1.63;;